createdAt,value
2023-03-02T00:03:35.188Z,87.76
2023-03-02T00:08:38.864Z,87.70
2023-03-02T00:13:42.572Z,86.97
2023-03-02T00:18:45.133Z,86.71
2023-03-02T00:23:47.625Z,86.63
2023-03-02T00:28:50.161Z,86.56
2023-03-02T00:33:56.285Z,86.37
2023-03-02T00:38:58.855Z,86.14
2023-03-02T00:44:01.380Z,86.05
2023-03-02T00:49:03.968Z,86.20
2023-03-02T00:54:06.533Z,85.80
2023-03-02T00:59:26.400Z,85.04
2023-03-02T01:04:38.568Z,84.50
2023-03-02T01:09:43.235Z,84.63
2023-03-02T01:14:48.473Z,84.62
2023-03-02T01:19:52.310Z,84.68
2023-03-02T01:24:54.793Z,84.68
2023-03-02T01:29:57.307Z,84.59
2023-03-02T01:34:59.852Z,84.76
2023-03-02T01:40:05.728Z,84.84
2023-03-02T01:45:45.556Z,84.19
2023-03-02T01:50:48.316Z,83.69
2023-03-02T01:55:51.210Z,82.97
2023-03-02T02:00:55.582Z,82.79
2023-03-02T02:06:18.029Z,82.91
2023-03-02T02:11:20.762Z,82.80
2023-03-02T02:16:23.329Z,82.69
2023-03-02T02:21:28.069Z,82.82
2023-03-02T02:26:40.791Z,82.93
2023-03-02T02:31:57.382Z,83.07
2023-03-02T02:37:06.903Z,82.81
2023-03-02T02:42:19.674Z,82.82
2023-03-02T02:47:22.828Z,83.12
2023-03-02T02:52:28.183Z,83.21
2023-03-02T02:57:31.022Z,83.50
2023-03-02T03:02:39.810Z,83.66
2023-03-02T03:07:43.069Z,83.82
2023-03-02T03:12:46.272Z,83.93
2023-03-02T03:17:56.040Z,84.35
2023-03-02T03:23:00.708Z,84.67
2023-03-02T03:28:04.012Z,85.22
2023-03-02T03:33:06.752Z,85.32
2023-03-02T03:38:09.266Z,85.27
2023-03-02T03:43:13.707Z,86.07
2023-03-02T03:48:16.163Z,85.98
2023-03-02T03:53:18.725Z,86.38
2023-03-02T03:58:21.278Z,86.33
2023-03-02T04:03:23.857Z,86.40
2023-03-02T04:08:26.437Z,86.80
2023-03-02T04:13:28.956Z,86.27
2023-03-02T04:18:31.439Z,86.42
2023-03-02T04:23:33.929Z,86.15
2023-03-02T04:28:36.536Z,86.59
2023-03-02T04:33:39.120Z,86.85
2023-03-02T04:38:41.739Z,87.13
2023-03-02T04:43:44.269Z,87.48
2023-03-02T04:48:46.983Z,87.38
2023-03-02T04:53:55.173Z,87.54
2023-03-02T04:58:58.193Z,87.48
2023-03-02T05:04:03.119Z,87.80
2023-03-02T05:09:06.190Z,88.00
2023-03-02T05:14:11.820Z,88.00
2023-03-02T05:19:14.707Z,88.07
2023-03-02T05:24:17.702Z,88.42
2023-03-02T05:29:20.285Z,88.66
2023-03-02T05:34:22.866Z,88.50
2023-03-02T05:39:25.429Z,88.72
2023-03-02T05:44:27.943Z,88.57
2023-03-02T05:49:30.415Z,88.59
2023-03-02T05:54:32.920Z,88.38
2023-03-02T05:59:35.551Z,88.03
2023-03-02T06:04:43.022Z,88.24
2023-03-02T06:09:45.662Z,88.54
2023-03-02T06:14:48.847Z,87.97
2023-03-02T06:19:51.348Z,87.97
2023-03-02T06:24:56.611Z,88.78
2023-03-02T06:29:59.211Z,88.56
2023-03-02T06:35:03.549Z,88.61
2023-03-02T06:40:10.817Z,88.46
2023-03-02T06:45:13.398Z,87.93
2023-03-02T06:50:16.042Z,86.85
2023-03-02T06:55:18.660Z,87.03
2023-03-02T07:00:28.265Z,87.17
2023-03-02T07:05:33.920Z,86.36
2023-03-02T07:10:37.874Z,86.56
2023-03-02T07:15:40.583Z,86.56
2023-03-02T07:20:43.159Z,85.98
2023-03-02T07:25:45.700Z,86.02
2023-03-02T07:30:48.282Z,85.66
2023-03-02T07:35:50.996Z,84.84
2023-03-02T07:40:53.701Z,85.15
2023-03-02T07:45:59.683Z,85.01
2023-03-02T07:51:04.514Z,84.93
2023-03-02T07:56:11.443Z,84.80
2023-03-02T08:01:15.017Z,82.93
2023-03-02T08:06:17.924Z,83.01
2023-03-02T08:11:20.485Z,82.82
2023-03-02T08:16:24.793Z,82.73
2023-03-02T08:21:28.834Z,81.33
2023-03-02T08:26:31.425Z,79.69
2023-03-02T08:31:34.304Z,80.16
2023-03-02T08:36:37.061Z,81.17
2023-03-02T08:41:39.887Z,80.41
2023-03-02T08:46:42.415Z,80.16
2023-03-02T08:51:46.045Z,78.96
2023-03-02T08:56:49.253Z,79.56
2023-03-02T09:01:51.744Z,78.46
2023-03-02T09:06:54.302Z,78.02
2023-03-02T09:11:56.916Z,76.99
2023-03-02T09:16:59.517Z,76.05
2023-03-02T09:22:02.105Z,73.74
2023-03-02T09:27:04.655Z,74.16
2023-03-02T09:32:07.217Z,74.14
2023-03-02T09:37:09.758Z,73.90
2023-03-02T09:42:50.844Z,74.09
2023-03-02T09:47:58.405Z,74.21
2023-03-02T09:53:23.871Z,75.14
2023-03-02T09:58:34.293Z,74.98
2023-03-02T10:04:01.384Z,74.84
2023-03-02T10:09:03.990Z,74.26
2023-03-02T10:14:24.138Z,73.69
2023-03-02T10:19:41.696Z,73.46
2023-03-02T10:25:01.868Z,72.67
2023-03-02T10:30:21.689Z,73.32
2023-03-02T10:35:26.848Z,73.37
2023-03-02T10:41:03.335Z,73.49
2023-03-02T10:46:08.705Z,72.20
2023-03-02T10:51:22.046Z,72.34
2023-03-02T10:56:24.690Z,72.41
2023-03-02T11:01:27.243Z,71.86
2023-03-02T11:06:30.208Z,71.03
2023-03-02T11:11:33.596Z,70.67
2023-03-02T11:16:36.446Z,70.19
2023-03-02T11:21:58.453Z,69.17
2023-03-02T11:27:07.999Z,69.12
2023-03-02T11:32:20.058Z,68.13
2023-03-02T11:37:29.564Z,67.19
2023-03-02T11:42:36.153Z,65.52
2023-03-02T11:47:43.252Z,65.84
2023-03-02T11:52:52.120Z,65.73
2023-03-02T12:03:06.564Z,64.82
2023-03-02T12:08:15.185Z,65.04
2023-03-02T12:13:26.020Z,65.02
2023-03-02T12:18:44.086Z,63.79
2023-03-02T12:23:49.792Z,63.28
2023-03-02T12:29:06.711Z,63.38
2023-03-02T12:34:24.624Z,63.90
2023-03-02T12:39:33.048Z,63.75
2023-03-02T12:44:55.269Z,63.10
2023-03-02T12:50:01.920Z,63.06
2023-03-02T12:55:18.096Z,62.75
2023-03-02T13:00:24.780Z,62.78
2023-03-02T13:05:33.494Z,61.92
2023-03-02T13:10:40.199Z,62.61
2023-03-02T13:15:53.034Z,62.20
2023-03-02T13:20:55.776Z,62.02
2023-03-02T13:26:00.997Z,62.19
2023-03-02T13:31:07.073Z,62.19
2023-03-02T13:36:17.091Z,62.48
2023-03-02T13:41:27.726Z,62.92
2023-03-02T13:46:36.165Z,63.19
2023-03-02T13:51:47.583Z,62.61
2023-03-02T13:56:52.167Z,63.19
2023-03-02T14:01:55.288Z,63.04
2023-03-02T14:06:57.809Z,63.23
2023-03-02T14:12:00.335Z,63.01
2023-03-02T14:17:16.710Z,62.81
2023-03-02T14:22:20.125Z,62.20
2023-03-02T14:27:28.259Z,62.13
2023-03-02T14:32:31.272Z,62.18
2023-03-02T14:37:33.931Z,61.13
2023-03-02T14:42:36.442Z,59.82
2023-03-02T14:47:39.668Z,58.56
2023-03-02T14:52:48.115Z,57.54
2023-03-02T14:57:54.608Z,56.08
2023-03-02T15:02:58.526Z,53.98
2023-03-02T15:08:01.213Z,54.50
2023-03-02T15:13:03.842Z,54.45
2023-03-02T15:18:06.813Z,55.32
2023-03-02T15:23:09.357Z,56.71
2023-03-02T15:28:11.871Z,58.44
2023-03-02T15:33:14.412Z,59.90
2023-03-02T15:38:16.983Z,61.03
2023-03-02T15:43:19.591Z,62.18
2023-03-02T15:48:22.099Z,63.05
2023-03-02T15:53:25.206Z,63.88
2023-03-02T15:58:27.688Z,64.72
2023-03-02T16:03:30.206Z,65.63
2023-03-02T16:08:32.745Z,66.03
2023-03-02T16:13:35.592Z,66.70
2023-03-02T16:18:38.097Z,67.41
2023-03-02T16:23:40.579Z,67.87
2023-03-02T16:28:43.204Z,68.68
2023-03-02T16:33:46.952Z,69.40
2023-03-02T16:38:49.495Z,70.16
2023-03-02T16:43:54.811Z,70.87
2023-03-02T16:48:57.927Z,71.36
2023-03-02T16:54:00.592Z,72.44
2023-03-02T16:59:03.164Z,72.76
2023-03-02T17:04:06.184Z,73.50
2023-03-02T17:09:08.821Z,74.08
2023-03-02T17:14:11.835Z,74.30
2023-03-02T17:19:14.489Z,74.93
2023-03-02T17:24:17.056Z,75.51
2023-03-02T17:29:19.716Z,76.23
2023-03-02T17:34:22.312Z,76.67
2023-03-02T17:39:25.196Z,77.15
2023-03-02T17:44:27.826Z,77.40
2023-03-02T17:49:31.127Z,77.45
2023-03-02T17:54:33.654Z,77.55
2023-03-02T17:59:36.502Z,77.89
2023-03-02T18:04:39.139Z,78.03
2023-03-02T18:09:43.190Z,78.22
2023-03-02T18:14:45.767Z,78.30
2023-03-02T18:19:48.847Z,78.50
2023-03-02T18:24:52.847Z,79.20
2023-03-02T18:29:55.526Z,79.03
2023-03-02T18:34:58.188Z,79.31
2023-03-02T18:40:00.976Z,79.89
2023-03-02T18:45:05.005Z,80.33
2023-03-02T18:50:08.108Z,80.73
2023-03-02T18:55:11.373Z,80.80
2023-03-02T19:00:21.634Z,81.34
2023-03-02T19:05:27.025Z,81.68
2023-03-02T19:10:29.638Z,81.62
2023-03-02T19:15:34.755Z,81.55
2023-03-02T19:20:37.314Z,81.75
2023-03-02T19:25:40.115Z,82.35
2023-03-02T19:30:42.752Z,82.70
2023-03-02T19:35:45.543Z,82.64
2023-03-02T19:40:48.118Z,82.89
2023-03-02T19:45:50.792Z,82.78
2023-03-02T19:50:53.429Z,83.17
2023-03-02T19:56:00.491Z,83.21
2023-03-02T20:01:04.360Z,83.22
2023-03-02T20:06:07.051Z,83.44
2023-03-02T20:11:11.200Z,83.67
2023-03-02T20:16:14.270Z,83.95
2023-03-02T20:21:16.957Z,83.46
2023-03-02T20:26:20.269Z,83.63
2023-03-02T20:31:24.822Z,83.28
2023-03-02T20:36:31.598Z,83.64
2023-03-02T20:41:35.147Z,83.77
2023-03-02T20:46:42.573Z,83.97
2023-03-02T20:51:52.595Z,83.88
2023-03-02T20:56:55.781Z,84.00
2023-03-02T21:01:58.588Z,84.50
2023-03-02T21:07:01.342Z,84.67
2023-03-02T21:12:05.402Z,84.25
2023-03-02T21:17:08.770Z,84.98
2023-03-02T21:22:11.326Z,84.69
2023-03-02T21:27:13.947Z,84.66
2023-03-02T21:32:16.793Z,84.98
2023-03-02T21:37:19.405Z,85.39
2023-03-02T21:42:21.927Z,85.64
2023-03-02T21:47:24.455Z,85.57
2023-03-02T21:52:27.440Z,85.46
2023-03-02T21:57:30.404Z,85.57
2023-03-02T22:02:32.934Z,86.16
2023-03-02T22:07:35.536Z,86.32
2023-03-02T22:12:38.090Z,86.63
2023-03-02T22:17:41.981Z,86.97
2023-03-02T22:22:44.915Z,86.72
2023-03-02T22:27:47.514Z,86.90
2023-03-02T22:32:50.145Z,86.76
2023-03-02T22:38:02.019Z,86.71
2023-03-02T22:43:25.492Z,86.76
2023-03-02T22:48:30.161Z,87.06
2023-03-02T22:53:34.053Z,87.88
2023-03-02T22:58:47.964Z,88.41
2023-03-02T23:04:15.219Z,88.24
2023-03-02T23:09:21.730Z,88.52
2023-03-02T23:14:47.574Z,89.01
2023-03-02T23:19:51.079Z,89.49
2023-03-02T23:24:53.955Z,89.71
2023-03-02T23:29:56.617Z,89.45
2023-03-02T23:34:59.158Z,89.07
2023-03-02T23:40:01.676Z,89.96
2023-03-02T23:45:05.333Z,90.01
2023-03-02T23:50:08.846Z,90.40
2023-03-02T23:55:11.694Z,90.01
